createdAt,value
2018-07-03T00:00:20.397Z,11.50
2018-07-03T00:02:49.950Z,11.40
2018-07-03T00:05:18.980Z,11.30
2018-07-03T00:07:47.920Z,11.40
2018-07-03T00:10:16.702Z,11.50
2018-07-03T00:12:45.602Z,11.40
2018-07-03T00:15:14.929Z,11.40
2018-07-03T00:17:43.929Z,11.30
2018-07-03T00:20:12.973Z,11.20
2018-07-03T00:22:41.881Z,11.20
2018-07-03T00:25:10.361Z,11.10
2018-07-03T00:27:38.981Z,11.20
2018-07-03T00:30:07.413Z,11.10
2018-07-03T00:32:35.842Z,10.90
2018-07-03T00:35:04.375Z,10.80
2018-07-03T00:37:32.947Z,10.80
2018-07-03T00:40:01.451Z,10.90
2018-07-03T00:42:29.866Z,10.80
2018-07-03T00:44:58.286Z,10.80
2018-07-03T00:47:26.847Z,10.70
2018-07-03T00:49:55.381Z,10.70
2018-07-03T00:52:23.822Z,10.70
2018-07-03T00:54:52.237Z,10.60
2018-07-03T00:57:20.724Z,10.70
2018-07-03T01:00:00.360Z,10.60
2018-07-03T01:02:28.758Z,10.50
2018-07-03T01:04:57.172Z,10.50
2018-07-03T01:07:25.598Z,10.50
2018-07-03T01:09:54.034Z,10.50
2018-07-03T01:12:22.606Z,10.40
2018-07-03T01:14:51.081Z,10.40
2018-07-03T01:17:19.509Z,10.30
2018-07-03T01:19:48.235Z,10.20
2018-07-03T01:22:16.720Z,10.20
2018-07-03T01:24:45.225Z,10.30
2018-07-03T01:27:13.893Z,10.20
2018-07-03T01:29:42.697Z,10.10
2018-07-03T01:32:11.114Z,10.00
2018-07-03T01:34:39.521Z,10.00
2018-07-03T01:37:08.462Z,10.00
2018-07-03T01:39:37.159Z,9.90
2018-07-03T01:42:05.622Z,9.90
2018-07-03T01:44:34.184Z,9.90
2018-07-03T01:47:02.919Z,9.90
2018-07-03T01:49:31.435Z,9.90
2018-07-03T01:51:59.874Z,9.80
2018-07-03T01:54:28.601Z,9.80
2018-07-03T01:56:57.190Z,9.90
2018-07-03T01:59:25.631Z,9.90
2018-07-03T02:01:54.936Z,10.00
2018-07-03T02:04:23.338Z,9.90
2018-07-03T02:06:51.740Z,9.80
2018-07-03T02:09:20.929Z,9.80
2018-07-03T02:11:49.993Z,9.80
2018-07-03T02:14:18.441Z,9.70
2018-07-03T02:16:46.842Z,9.60
2018-07-03T02:19:15.706Z,9.60
2018-07-03T02:21:44.278Z,9.50
2018-07-03T02:24:12.710Z,9.50
2018-07-03T02:26:41.320Z,9.40
2018-07-03T02:29:10.078Z,9.30
2018-07-03T02:31:38.506Z,9.30
2018-07-03T02:34:07.010Z,9.20
2018-07-03T02:36:35.799Z,9.20
2018-07-03T02:39:06.397Z,9.30
2018-07-03T02:41:35.099Z,9.30
2018-07-03T02:44:03.978Z,9.20
2018-07-03T02:46:32.647Z,9.10
2018-07-03T02:49:01.607Z,9.20
2018-07-03T02:51:30.086Z,9.10
2018-07-03T02:56:27.176Z,9.10
2018-07-03T02:58:55.611Z,9.20
2018-07-03T03:01:24.375Z,9.20
2018-07-03T03:03:53.347Z,9.10
2018-07-03T03:06:21.806Z,9.10
2018-07-03T03:08:50.300Z,9.10
2018-07-03T03:11:22.736Z,9.10
2018-07-03T03:13:53.577Z,9.10
2018-07-03T03:16:22.547Z,9.00
2018-07-03T03:18:51.852Z,8.90
2018-07-03T03:21:20.394Z,8.90
2018-07-03T03:23:48.858Z,9.00
2018-07-03T03:26:17.957Z,8.90
2018-07-03T03:28:47.303Z,8.90
2018-07-03T03:31:15.765Z,8.80
2018-07-03T03:33:44.277Z,8.80
2018-07-03T03:36:13.126Z,8.80
2018-07-03T03:38:41.553Z,8.80
2018-07-03T03:41:10.461Z,8.70
2018-07-03T03:43:39.032Z,8.60
2018-07-03T03:46:07.465Z,8.70
2018-07-03T03:48:36.143Z,8.70
2018-07-03T03:51:05.364Z,8.70
2018-07-03T03:53:33.778Z,8.70
2018-07-03T03:56:02.253Z,8.80
2018-07-03T03:58:31.470Z,8.90
2018-07-03T04:01:00.685Z,9.10
2018-07-03T04:03:29.197Z,9.00
2018-07-03T04:08:26.223Z,8.90
2018-07-03T04:10:54.820Z,8.90
2018-07-03T04:13:23.294Z,9.00
2018-07-03T04:15:55.942Z,8.90
2018-07-03T04:18:39.835Z,8.90
2018-07-03T04:21:08.847Z,9.00
2018-07-03T04:23:38.445Z,9.00
2018-07-03T04:26:07.261Z,9.00
2018-07-03T04:28:35.778Z,9.10
2018-07-03T04:31:04.609Z,9.10
2018-07-03T04:33:33.012Z,9.20
2018-07-03T04:36:01.464Z,9.30
2018-07-03T04:38:30.022Z,9.20
2018-07-03T04:40:58.839Z,9.30
2018-07-03T04:43:28.828Z,9.50
2018-07-03T04:45:57.913Z,9.60
2018-07-03T04:48:28.553Z,9.60
2018-07-03T04:50:56.951Z,9.80
2018-07-03T04:53:25.362Z,9.90
2018-07-03T04:55:54.297Z,10.00
2018-07-03T04:58:24.087Z,10.30
2018-07-03T05:00:52.539Z,11.40
2018-07-03T05:03:22.177Z,12.30
2018-07-03T05:05:51.183Z,13.40
2018-07-03T05:08:19.746Z,14.70
2018-07-03T05:10:48.259Z,15.90
2018-07-03T05:13:18.591Z,17.00
2018-07-03T05:15:47.849Z,17.20
2018-07-03T05:18:16.254Z,18.10
2018-07-03T05:20:44.683Z,18.30
2018-07-03T05:23:13.078Z,19.10
2018-07-03T05:25:41.490Z,20.10
2018-07-03T05:28:10.493Z,19.30
2018-07-03T05:30:40.749Z,20.30
2018-07-03T05:33:09.370Z,20.40
2018-07-03T05:35:37.818Z,20.70
2018-07-03T05:38:07.362Z,21.00
2018-07-03T05:40:37.685Z,21.30
2018-07-03T05:43:06.118Z,22.00
2018-07-03T05:45:34.519Z,22.40
2018-07-03T05:48:03.387Z,22.20
2018-07-03T05:50:33.547Z,22.10
2018-07-03T05:53:01.954Z,22.10
2018-07-03T05:55:30.735Z,21.40
2018-07-03T05:58:00.848Z,21.80
2018-07-03T06:00:29.503Z,22.70
2018-07-03T06:02:57.919Z,22.90
2018-07-03T06:05:26.366Z,23.30
2018-07-03T06:07:56.750Z,23.30
2018-07-03T06:10:25.787Z,23.60
2018-07-03T06:12:54.224Z,23.90
2018-07-03T06:15:22.633Z,24.30
2018-07-03T06:17:51.975Z,24.40
2018-07-03T06:20:21.686Z,23.80
2018-07-03T06:22:50.140Z,23.40
2018-07-03T06:25:18.515Z,24.00
2018-07-03T06:27:46.969Z,26.30
2018-07-03T06:30:16.646Z,26.30
2018-07-03T06:32:45.265Z,25.90
2018-07-03T06:35:13.689Z,26.20
2018-07-03T06:37:42.488Z,26.80
2018-07-03T06:40:10.965Z,26.90
2018-07-03T06:42:39.417Z,27.20
2018-07-03T06:45:08.687Z,27.60
2018-07-03T06:47:38.803Z,27.80
2018-07-03T06:50:07.624Z,28.10
2018-07-03T06:52:36.062Z,28.60
2018-07-03T06:55:04.885Z,28.90
2018-07-03T06:57:35.358Z,28.70
2018-07-03T07:00:04.822Z,28.80
2018-07-03T07:02:33.254Z,29.20
2018-07-03T07:05:02.171Z,29.80
2018-07-03T07:10:00.422Z,29.60
2018-07-03T07:12:28.842Z,30.60
2018-07-03T07:14:57.461Z,29.80
2018-07-03T07:17:28.069Z,29.50
2018-07-03T07:19:57.887Z,29.70
2018-07-03T07:22:27.638Z,29.90
2018-07-03T07:24:56.054Z,30.50
2018-07-03T07:27:24.461Z,31.00
2018-07-03T07:29:54.795Z,31.30
2018-07-03T07:32:24.627Z,31.40
2018-07-03T07:34:53.070Z,31.50
2018-07-03T07:37:21.495Z,31.40
2018-07-03T07:39:52.222Z,32.50
2018-07-03T07:44:49.205Z,32.70
2018-07-03T07:47:17.941Z,33.10
2018-07-03T07:49:47.849Z,33.90
2018-07-03T07:52:17.825Z,33.90
2018-07-03T07:54:46.246Z,33.30
2018-07-03T07:57:14.661Z,32.10
2018-07-03T07:59:45.608Z,31.90
2018-07-03T08:02:14.350Z,32.20
2018-07-03T08:04:42.770Z,31.70
2018-07-03T08:07:12.221Z,32.70
2018-07-03T08:09:40.861Z,33.40
2018-07-03T08:12:09.279Z,33.20
2018-07-03T08:14:41.443Z,33.80
2018-07-03T08:17:09.922Z,33.70
2018-07-03T08:19:38.308Z,33.10
2018-07-03T08:22:06.978Z,34.50
2018-07-03T08:24:36.957Z,33.90
2018-07-03T08:27:05.556Z,34.60
2018-07-03T08:29:36.010Z,35.00
2018-07-03T08:32:04.523Z,34.20
2018-07-03T08:37:01.711Z,33.60
2018-07-03T08:39:30.132Z,33.00
2018-07-03T08:42:00.025Z,33.20
2018-07-03T08:44:29.902Z,33.40
2018-07-03T08:46:58.581Z,34.50
2018-07-03T08:49:27.025Z,35.00
2018-07-03T08:51:56.211Z,34.90
2018-07-03T08:54:24.737Z,34.50
2018-07-03T08:59:21.769Z,35.90
2018-07-03T09:01:51.561Z,34.30
2018-07-03T09:04:20.112Z,35.20
2018-07-03T09:06:48.509Z,35.50
2018-07-03T09:09:19.904Z,34.90
2018-07-03T09:11:49.254Z,35.10
2018-07-03T09:14:17.649Z,34.70
2018-07-03T09:16:46.345Z,33.10
2018-07-03T09:19:14.987Z,33.30
2018-07-03T09:21:44.041Z,35.10
2018-07-03T09:24:13.205Z,34.90
2018-07-03T09:26:41.597Z,35.20
2018-07-03T09:29:10.705Z,34.90
2018-07-03T09:31:39.105Z,34.00
2018-07-03T09:36:36.320Z,34.80
2018-07-03T09:39:08.082Z,35.90
2018-07-03T09:41:37.693Z,35.40
2018-07-03T09:44:07.193Z,35.20
2018-07-03T09:46:35.690Z,34.70
2018-07-03T09:49:04.194Z,35.40
2018-07-03T09:51:33.676Z,34.40
2018-07-03T09:54:02.070Z,34.90
2018-07-03T09:56:32.278Z,36.50
2018-07-03T09:59:00.993Z,36.70
2018-07-03T10:01:30.606Z,37.10
2018-07-03T10:03:59.209Z,34.40
2018-07-03T10:06:28.866Z,34.40
2018-07-03T10:08:58.057Z,33.80
2018-07-03T10:13:56.094Z,32.80
2018-07-03T10:16:24.485Z,34.80
2018-07-03T10:18:53.728Z,35.60
2018-07-03T10:21:22.241Z,36.00
2018-07-03T10:23:51.057Z,34.90
2018-07-03T10:26:21.042Z,35.00
2018-07-03T10:28:50.505Z,35.30
2018-07-03T10:31:20.101Z,35.50
2018-07-03T10:33:48.546Z,34.20
2018-07-03T10:36:16.963Z,33.70
2018-07-03T10:38:46.383Z,33.50
2018-07-03T10:41:14.838Z,35.20
2018-07-03T10:43:43.698Z,36.10
2018-07-03T10:46:14.367Z,36.30
2018-07-03T10:48:43.452Z,36.30
2018-07-03T10:51:11.913Z,35.60
2018-07-03T10:53:40.706Z,35.40
2018-07-03T10:58:39.663Z,36.30
2018-07-03T11:01:08.137Z,35.80
2018-07-03T11:06:04.695Z,34.90
2018-07-03T11:08:33.150Z,34.90
2018-07-03T11:11:01.923Z,34.40
2018-07-03T11:13:31.959Z,34.20
2018-07-03T11:16:00.873Z,34.90
2018-07-03T11:18:29.453Z,34.80
2018-07-03T11:23:25.999Z,33.80
2018-07-03T11:25:55.060Z,33.40
2018-07-03T11:28:23.877Z,33.50
2018-07-03T11:30:52.315Z,33.50
2018-07-03T11:33:20.717Z,34.70
2018-07-03T11:35:50.666Z,34.70
2018-07-03T11:38:19.269Z,34.30
2018-07-03T11:40:48.371Z,34.10
2018-07-03T11:43:16.830Z,34.80
2018-07-03T11:45:45.864Z,34.90
2018-07-03T11:48:14.967Z,35.00
2018-07-03T11:50:43.561Z,34.30
2018-07-03T11:53:12.170Z,34.30
2018-07-03T11:55:40.706Z,34.20
2018-07-03T11:58:09.129Z,33.90
2018-07-03T12:00:37.554Z,34.40
2018-07-03T12:03:06.062Z,34.80
2018-07-03T12:05:34.810Z,35.80
2018-07-03T12:08:03.751Z,34.90
2018-07-03T12:10:32.410Z,34.50
2018-07-03T12:13:01.043Z,34.70
2018-07-03T12:15:29.894Z,34.60
2018-07-03T12:17:58.353Z,34.80
2018-07-03T12:20:27.213Z,34.90
2018-07-03T12:22:55.703Z,34.20
2018-07-03T12:25:24.165Z,34.30
2018-07-03T12:30:21.629Z,33.70
2018-07-03T12:32:50.553Z,33.40
2018-07-03T12:35:19.006Z,34.00
2018-07-03T12:37:47.794Z,34.70
2018-07-03T12:40:16.593Z,35.40
2018-07-03T12:42:45.637Z,35.00
2018-07-03T12:45:14.244Z,35.10
2018-07-03T12:47:42.734Z,35.10
2018-07-03T12:50:12.330Z,34.80
2018-07-03T12:52:40.766Z,33.10
2018-07-03T12:55:09.606Z,33.90
2018-07-03T12:57:38.561Z,35.00
2018-07-03T13:00:07.999Z,35.00
2018-07-03T13:02:36.496Z,34.50
2018-07-03T13:05:05.167Z,33.80
2018-07-03T13:07:34.603Z,33.80
2018-07-03T13:10:04.049Z,33.30
2018-07-03T13:12:33.593Z,32.10
2018-07-03T13:15:02.706Z,32.90
2018-07-03T13:17:31.135Z,33.70
2018-07-03T13:19:59.563Z,33.60
2018-07-03T13:22:29.198Z,33.20
2018-07-03T13:24:58.641Z,32.70
2018-07-03T13:27:28.946Z,33.30
2018-07-03T13:29:57.552Z,32.90
2018-07-03T13:32:25.934Z,32.80
2018-07-03T13:34:54.845Z,32.40
2018-07-03T13:37:23.711Z,32.70
2018-07-03T13:39:58.280Z,32.60
2018-07-03T13:42:27.165Z,32.70
2018-07-03T13:44:56.298Z,32.70
2018-07-03T13:47:25.938Z,32.90
2018-07-03T13:49:54.713Z,33.10
2018-07-03T13:52:24.012Z,32.90
2018-07-03T13:54:52.652Z,32.90
2018-07-03T13:57:21.506Z,33.10
2018-07-03T13:59:50.558Z,32.30
2018-07-03T14:02:19.436Z,32.40
2018-07-03T14:04:48.244Z,32.30
2018-07-03T14:07:17.565Z,31.90
2018-07-03T14:09:46.497Z,31.70
2018-07-03T14:12:15.289Z,32.00
2018-07-03T14:14:44.208Z,31.50
2018-07-03T14:17:13.446Z,31.40
2018-07-03T14:19:42.324Z,31.60
2018-07-03T14:22:11.360Z,31.70
2018-07-03T14:24:40.333Z,31.60
2018-07-03T14:29:37.974Z,31.30
2018-07-03T14:32:07.097Z,30.90
2018-07-03T14:34:36.225Z,30.30
2018-07-03T14:37:05.016Z,30.00
2018-07-03T14:39:33.994Z,30.40
2018-07-03T14:42:03.034Z,30.70
2018-07-03T14:44:31.992Z,30.40
2018-07-03T14:47:00.943Z,30.50
2018-07-03T14:49:29.780Z,30.40
2018-07-03T14:51:59.439Z,30.20
2018-07-03T14:54:28.192Z,30.30
2018-07-03T14:56:57.000Z,30.40
2018-07-03T14:59:26.135Z,30.30
2018-07-03T15:01:54.905Z,30.60
2018-07-03T15:04:23.583Z,30.60
2018-07-03T15:06:52.606Z,29.90
2018-07-03T15:09:21.029Z,29.80
2018-07-03T15:11:49.520Z,30.00
2018-07-03T15:14:17.941Z,30.10
2018-07-03T15:16:46.434Z,30.00
2018-07-03T15:19:20.365Z,29.90
2018-07-03T15:21:48.929Z,30.10
2018-07-03T15:24:17.720Z,30.00
2018-07-03T15:26:46.250Z,30.00
2018-07-03T15:29:14.682Z,29.80
2018-07-03T15:31:43.734Z,29.70
2018-07-03T15:34:12.902Z,29.70
2018-07-03T15:36:41.362Z,29.80
2018-07-03T15:39:12.170Z,29.80
2018-07-03T15:41:41.270Z,29.70
2018-07-03T15:44:21.415Z,29.70
2018-07-03T15:46:49.915Z,29.60
2018-07-03T15:49:18.622Z,29.60
2018-07-03T15:51:47.880Z,29.40
2018-07-03T15:54:16.640Z,29.40
2018-07-03T15:56:45.167Z,29.40
2018-07-03T15:59:13.948Z,29.30
2018-07-03T16:01:42.349Z,29.30
2018-07-03T16:05:22.878Z,29.10
2018-07-03T16:07:59.366Z,29.00
2018-07-03T16:10:28.397Z,28.90
2018-07-03T16:12:57.329Z,28.80
2018-07-03T16:15:26.167Z,28.90
2018-07-03T16:17:55.180Z,29.00
2018-07-03T16:20:29.062Z,29.10
2018-07-03T16:22:58.278Z,29.10
2018-07-03T16:25:27.387Z,28.90
2018-07-03T16:27:57.524Z,28.80
2018-07-03T16:30:25.933Z,28.50
2018-07-03T16:32:54.964Z,28.50
2018-07-03T16:35:24.439Z,28.50
2018-07-03T16:37:52.889Z,28.40
2018-07-03T16:40:22.454Z,28.30
2018-07-03T16:42:50.914Z,28.30
2018-07-03T16:45:19.689Z,28.40
2018-07-03T16:47:48.297Z,28.20
2018-07-03T16:50:16.766Z,28.10
2018-07-03T16:52:45.427Z,27.90
2018-07-03T16:55:14.383Z,28.10
2018-07-03T16:57:42.808Z,28.10
2018-07-03T17:00:11.290Z,28.10
2018-07-03T17:02:40.516Z,28.10
2018-07-03T17:05:10.319Z,28.10
2018-07-03T17:07:38.806Z,27.90
2018-07-03T17:10:08.414Z,27.90
2018-07-03T17:12:36.862Z,27.90
2018-07-03T17:15:05.350Z,27.80
2018-07-03T17:17:33.812Z,27.80
2018-07-03T17:20:02.266Z,27.80
2018-07-03T17:22:31.193Z,27.80
2018-07-03T17:25:05.548Z,27.70
2018-07-03T17:27:35.379Z,27.60
2018-07-03T17:30:05.201Z,27.50
2018-07-03T17:32:33.639Z,27.50
2018-07-03T17:35:02.455Z,27.40
2018-07-03T17:37:31.492Z,27.40
2018-07-03T17:40:11.260Z,27.30
2018-07-03T17:42:54.950Z,27.30
2018-07-03T17:45:39.095Z,27.20
2018-07-03T17:48:08.627Z,27.10
2018-07-03T17:50:37.109Z,26.90
2018-07-03T17:53:06.068Z,26.90
2018-07-03T17:55:34.632Z,26.80
2018-07-03T17:58:03.435Z,26.80
2018-07-03T18:00:32.143Z,26.70
2018-07-03T18:03:00.931Z,26.60
2018-07-03T18:05:30.534Z,26.50
2018-07-03T18:07:59.641Z,26.50
2018-07-03T18:10:28.368Z,26.30
2018-07-03T18:12:56.998Z,26.10
2018-07-03T18:15:26.391Z,26.00
2018-07-03T18:17:55.956Z,25.80
2018-07-03T18:20:25.366Z,25.60
2018-07-03T18:22:54.702Z,25.50
2018-07-03T18:25:23.858Z,25.40
2018-07-03T18:30:25.441Z,25.20
2018-07-03T18:32:55.178Z,25.00
2018-07-03T18:35:24.479Z,24.90
2018-07-03T18:37:54.449Z,24.80
2018-07-03T18:40:24.023Z,24.60
2018-07-03T18:42:53.541Z,24.50
2018-07-03T18:45:23.691Z,24.30
2018-07-03T18:47:54.895Z,24.20
2018-07-03T18:50:24.260Z,24.00
2018-07-03T18:52:52.902Z,23.90
2018-07-03T18:55:24.188Z,23.70
2018-07-03T18:57:52.632Z,23.50
2018-07-03T19:00:21.385Z,23.30
2018-07-03T19:02:49.932Z,23.20
2018-07-03T19:05:18.422Z,23.00
2018-07-03T19:10:16.027Z,22.70
2018-07-03T19:12:44.477Z,22.60
2018-07-03T19:15:12.878Z,22.40
2018-07-03T19:17:41.653Z,22.20
2018-07-03T19:20:11.726Z,22.10
2018-07-03T19:22:40.297Z,21.90
2018-07-03T19:25:08.775Z,21.60
2018-07-03T19:27:37.380Z,21.60
2018-07-03T19:30:06.367Z,21.50
2018-07-03T19:32:35.768Z,21.20
2018-07-03T19:35:05.420Z,21.00
2018-07-03T19:37:34.896Z,20.90
2018-07-03T19:40:05.153Z,20.70
2018-07-03T19:42:35.156Z,20.60
2018-07-03T19:45:05.476Z,20.40
2018-07-03T19:47:35.039Z,20.30
2018-07-03T19:50:04.546Z,20.10
2018-07-03T19:52:34.640Z,20.00
2018-07-03T19:55:04.101Z,19.90
2018-07-03T19:57:35.979Z,19.80
2018-07-03T20:00:05.269Z,19.60
2018-07-03T20:02:33.809Z,19.40
2018-07-03T20:05:02.220Z,19.30
2018-07-03T20:07:30.692Z,19.30
2018-07-03T20:12:27.481Z,19.00
2018-07-03T20:14:56.872Z,18.80
2018-07-03T20:17:26.217Z,18.70
2018-07-03T20:19:56.227Z,18.70
2018-07-03T20:22:25.833Z,18.70
2018-07-03T20:24:55.036Z,18.60
2018-07-03T20:27:23.951Z,18.40
2018-07-03T20:30:04.003Z,18.30
2018-07-03T20:32:38.859Z,18.10
2018-07-03T20:35:08.342Z,18.00
2018-07-03T20:37:47.583Z,17.90
2018-07-03T20:40:16.856Z,17.80
2018-07-03T20:42:45.380Z,17.80
2018-07-03T20:45:15.566Z,17.80
2018-07-03T20:47:45.527Z,17.70
2018-07-03T20:50:15.677Z,17.70
2018-07-03T20:52:46.228Z,17.60
2018-07-03T20:55:15.423Z,17.40
2018-07-03T20:57:46.292Z,17.30
2018-07-03T21:00:14.746Z,17.30
2018-07-03T21:05:18.267Z,17.10
2018-07-03T21:07:59.985Z,17.00
2018-07-03T21:10:31.479Z,16.90
2018-07-03T21:13:05.337Z,16.90
2018-07-03T21:15:35.395Z,16.80
2018-07-03T21:18:03.990Z,16.70
2018-07-03T21:20:32.413Z,16.60
2018-07-03T21:23:00.833Z,16.60
2018-07-03T21:25:31.369Z,16.70
2018-07-03T21:27:59.793Z,16.60
2018-07-03T21:30:30.088Z,16.50
2018-07-03T21:33:00.158Z,16.50
2018-07-03T21:35:29.115Z,16.40
2018-07-03T21:37:57.615Z,16.40
2018-07-03T21:40:26.130Z,16.40
2018-07-03T21:42:54.618Z,16.40
2018-07-03T21:45:23.070Z,16.40
2018-07-03T21:47:51.510Z,16.40
2018-07-03T21:50:19.916Z,16.30
2018-07-03T21:52:49.280Z,16.30
2018-07-03T21:55:17.780Z,16.40
2018-07-03T21:57:46.411Z,16.40
2018-07-03T22:00:16.636Z,16.30
2018-07-03T22:02:46.359Z,16.30
2018-07-03T22:07:42.922Z,16.20
2018-07-03T22:10:11.345Z,16.20
2018-07-03T22:12:39.859Z,16.20
2018-07-03T22:15:08.470Z,16.10
2018-07-03T22:17:38.104Z,16.10
2018-07-03T22:20:06.639Z,16.00
2018-07-03T22:22:35.099Z,16.10
2018-07-03T22:25:03.561Z,16.00
2018-07-03T22:27:32.008Z,16.00
2018-07-03T22:30:00.416Z,16.00
2018-07-03T22:32:28.836Z,16.10
2018-07-03T22:34:57.417Z,16.20
2018-07-03T22:37:25.953Z,16.10
2018-07-03T22:39:54.354Z,16.00
2018-07-03T22:42:22.752Z,16.10
2018-07-03T22:44:51.385Z,16.10
2018-07-03T22:47:19.825Z,16.10
2018-07-03T22:49:53.280Z,16.10
2018-07-03T22:52:21.687Z,16.10
2018-07-03T22:54:50.227Z,16.00
2018-07-03T22:57:18.637Z,16.00
2018-07-03T22:59:47.147Z,16.00
2018-07-03T23:02:15.605Z,16.00
2018-07-03T23:04:44.477Z,15.90
2018-07-03T23:07:13.466Z,15.90
2018-07-03T23:09:42.412Z,15.90
2018-07-03T23:12:15.539Z,15.80
2018-07-03T23:14:44.074Z,15.90
2018-07-03T23:17:12.966Z,15.90
2018-07-03T23:19:41.848Z,15.80
2018-07-03T23:22:10.838Z,15.70
2018-07-03T23:24:39.622Z,15.70
2018-07-03T23:27:08.340Z,15.70
2018-07-03T23:29:37.403Z,15.70
2018-07-03T23:32:05.943Z,15.60
2018-07-03T23:34:34.382Z,15.60
2018-07-03T23:37:02.792Z,15.60
2018-07-03T23:39:31.326Z,15.70
2018-07-03T23:41:59.862Z,15.70
2018-07-03T23:44:28.283Z,15.70
2018-07-03T23:47:08.038Z,15.70
2018-07-03T23:52:21.597Z,15.80
2018-07-03T23:55:01.224Z,15.80
2018-07-03T23:57:40.874Z,15.80
